createdAt,value
2022-11-27T00:00:29.030Z,95.60
2022-11-27T00:01:29.023Z,97.80
2022-11-27T00:02:29.212Z,96.40
2022-11-27T00:03:29.119Z,121.20
2022-11-27T00:04:29.132Z,97.50
2022-11-27T00:05:28.943Z,91.40
2022-11-27T00:06:28.961Z,97.30
2022-11-27T00:07:29.076Z,99.20
2022-11-27T00:08:28.920Z,97.20
2022-11-27T00:09:28.885Z,106.80
2022-11-27T00:10:28.894Z,118.60
2022-11-27T00:11:28.867Z,106.80
2022-11-27T00:12:28.890Z,131.50
2022-11-27T00:13:28.891Z,100.90
2022-11-27T00:14:28.848Z,86.50
2022-11-27T00:15:28.886Z,103.70
2022-11-27T00:16:28.940Z,101.10
2022-11-27T00:17:28.804Z,108.70
2022-11-27T00:18:28.824Z,104.40
2022-11-27T00:19:28.783Z,114.50
2022-11-27T00:20:29.897Z,104.30
2022-11-27T00:21:28.751Z,137.70
2022-11-27T00:22:28.750Z,123.40
2022-11-27T00:23:28.717Z,92.60
2022-11-27T00:24:28.748Z,125.80
2022-11-27T00:25:28.683Z,129.90
2022-11-27T00:26:31.867Z,113.00
2022-11-27T00:27:28.663Z,84.50
2022-11-27T00:28:28.664Z,104.50
2022-11-27T00:29:28.655Z,124.10
2022-11-27T00:30:28.653Z,105.50
2022-11-27T00:31:28.732Z,110.20
2022-11-27T00:32:28.619Z,134.30
2022-11-27T00:33:28.585Z,120.20
2022-11-27T00:34:28.584Z,118.00
2022-11-27T00:35:28.594Z,114.00
2022-11-27T00:36:28.565Z,93.30
2022-11-27T00:37:28.532Z,95.20
2022-11-27T00:38:28.539Z,116.30
2022-11-27T00:39:28.530Z,90.70
2022-11-27T00:40:28.556Z,105.20
2022-11-27T00:41:28.479Z,116.10
2022-11-27T00:42:28.459Z,107.80
2022-11-27T00:43:28.474Z,108.70
2022-11-27T00:44:28.441Z,132.80
2022-11-27T00:45:28.454Z,102.80
2022-11-27T00:46:29.374Z,82.40
2022-11-27T00:47:28.424Z,98.70
2022-11-27T00:48:28.405Z,128.10
2022-11-27T00:49:28.413Z,98.00
2022-11-27T00:50:28.359Z,78.70
2022-11-27T00:51:28.386Z,107.40
2022-11-27T00:52:28.371Z,116.30
2022-11-27T00:53:28.355Z,110.60
2022-11-27T00:54:28.306Z,91.20
2022-11-27T00:55:28.315Z,95.60
2022-11-27T00:56:28.280Z,118.30
2022-11-27T00:57:28.294Z,103.50
2022-11-27T00:58:28.306Z,106.80
2022-11-27T00:59:28.262Z,120.80
2022-11-27T01:00:28.231Z,119.60
2022-11-27T01:01:28.318Z,115.40
2022-11-27T01:02:28.248Z,100.50
2022-11-27T01:03:28.244Z,136.10
2022-11-27T01:04:28.207Z,111.50
2022-11-27T01:05:28.188Z,81.80
2022-11-27T01:06:28.151Z,95.00
2022-11-27T01:07:28.213Z,100.80
2022-11-27T01:08:28.124Z,103.60
2022-11-27T01:09:28.143Z,129.00
2022-11-27T01:10:28.132Z,111.50
2022-11-27T01:11:28.127Z,126.30
2022-11-27T01:12:28.072Z,127.20
2022-11-27T01:13:28.086Z,96.90
2022-11-27T01:14:28.169Z,108.40
2022-11-27T01:15:28.055Z,113.00
2022-11-27T01:16:28.128Z,99.30
2022-11-27T01:17:28.048Z,108.00
2022-11-27T01:18:28.004Z,118.50
2022-11-27T01:19:28.010Z,97.00
2022-11-27T01:20:27.965Z,115.30
2022-11-27T01:21:28.007Z,99.50
2022-11-27T01:22:27.979Z,116.70
2022-11-27T01:23:27.947Z,108.80
2022-11-27T01:24:27.923Z,116.90
2022-11-27T01:25:27.949Z,118.10
2022-11-27T01:26:27.892Z,117.70
2022-11-27T01:27:27.921Z,103.10
2022-11-27T01:28:27.912Z,104.60
2022-11-27T01:29:27.898Z,110.50
2022-11-27T01:30:27.910Z,94.40
2022-11-27T01:31:27.898Z,107.10
2022-11-27T01:32:27.811Z,107.00
2022-11-27T01:33:27.823Z,110.60
2022-11-27T01:34:27.812Z,126.30
2022-11-27T01:35:27.797Z,113.90
2022-11-27T01:36:27.782Z,102.10
2022-11-27T01:37:27.768Z,105.00
2022-11-27T01:38:27.734Z,119.20
2022-11-27T01:39:27.742Z,132.30
2022-11-27T01:40:27.754Z,119.70
2022-11-27T01:41:27.752Z,125.80
2022-11-27T01:42:27.683Z,109.60
2022-11-27T01:43:27.705Z,112.00
2022-11-27T01:44:27.697Z,121.20
2022-11-27T01:45:27.667Z,115.20
2022-11-27T01:46:27.733Z,106.60
2022-11-27T01:47:27.644Z,135.30
2022-11-27T01:48:27.637Z,118.20
2022-11-27T01:49:27.619Z,125.50
2022-11-27T01:50:27.584Z,111.30
2022-11-27T01:51:27.592Z,128.90
2022-11-27T01:52:27.599Z,128.10
2022-11-27T01:53:27.561Z,115.80
2022-11-27T01:54:27.545Z,126.50
2022-11-27T01:55:27.537Z,112.50
2022-11-27T01:56:27.536Z,122.20
2022-11-27T01:57:27.546Z,122.80
2022-11-27T01:58:27.530Z,119.80
2022-11-27T01:59:27.485Z,121.30
2022-11-27T02:00:27.457Z,142.10
2022-11-27T02:01:27.497Z,123.00
2022-11-27T02:02:27.494Z,146.10
2022-11-27T02:03:27.513Z,128.80
2022-11-27T02:04:27.441Z,127.20
2022-11-27T02:05:27.463Z,130.10
2022-11-27T02:06:27.400Z,154.80
2022-11-27T02:07:27.473Z,146.90
2022-11-27T02:08:27.387Z,151.30
2022-11-27T02:09:27.357Z,162.50
2022-11-27T02:10:27.360Z,179.70
2022-11-27T02:11:27.328Z,161.40
2022-11-27T02:12:27.309Z,159.30
2022-11-27T02:13:27.309Z,188.10
2022-11-27T02:14:27.271Z,183.80
2022-11-27T02:15:27.284Z,145.50
2022-11-27T02:16:27.388Z,124.80
2022-11-27T02:17:27.251Z,151.50
2022-11-27T02:18:27.219Z,138.00
2022-11-27T02:19:27.231Z,117.40
2022-11-27T02:20:27.193Z,119.70
2022-11-27T02:21:27.231Z,130.90
2022-11-27T02:22:27.192Z,154.50
2022-11-27T02:23:27.178Z,179.70
2022-11-27T02:24:27.164Z,161.10
2022-11-27T02:25:28.540Z,155.90
2022-11-27T02:26:27.118Z,149.30
2022-11-27T02:27:27.123Z,161.20
2022-11-27T02:28:27.132Z,161.00
2022-11-27T02:29:27.097Z,175.30
2022-11-27T02:30:27.063Z,184.60
2022-11-27T02:31:27.164Z,134.60
2022-11-27T02:32:27.050Z,130.40
2022-11-27T02:33:27.045Z,144.90
2022-11-27T02:34:27.045Z,175.30
2022-11-27T02:35:27.033Z,169.00
2022-11-27T02:36:26.991Z,150.90
2022-11-27T02:37:26.992Z,173.00
2022-11-27T02:38:26.960Z,190.80
2022-11-27T02:39:27.013Z,171.80
2022-11-27T02:40:26.928Z,186.10
2022-11-27T02:41:26.942Z,133.70
2022-11-27T02:42:26.910Z,139.70
2022-11-27T02:43:26.922Z,149.50
2022-11-27T02:44:26.912Z,122.70
2022-11-27T02:45:26.923Z,151.20
2022-11-27T02:46:26.869Z,156.60
2022-11-27T02:48:43.473Z,157.30
2022-11-27T02:49:44.478Z,152.50
2022-11-27T02:50:44.481Z,190.30
2022-11-27T02:51:44.453Z,196.90
2022-11-27T02:52:44.430Z,232.20
2022-11-27T02:53:44.435Z,179.70
2022-11-27T02:54:44.387Z,183.30
2022-11-27T02:55:44.407Z,204.30
2022-11-27T02:56:44.397Z,206.90
2022-11-27T02:57:44.379Z,189.10
2022-11-27T02:58:44.358Z,201.30
2022-11-27T02:59:44.350Z,183.70
2022-11-27T03:00:44.315Z,128.00
2022-11-27T03:01:44.429Z,144.40
2022-11-27T03:02:44.389Z,156.00
2022-11-27T03:03:44.300Z,164.80
2022-11-27T03:04:44.266Z,194.10
2022-11-27T03:05:44.271Z,142.90
2022-11-27T03:06:44.271Z,140.10
2022-11-27T03:07:44.345Z,138.50
2022-11-27T03:08:44.218Z,152.20
2022-11-27T03:09:44.221Z,161.00
2022-11-27T03:10:44.193Z,191.90
2022-11-27T03:11:44.203Z,198.00
2022-11-27T03:12:44.229Z,151.70
2022-11-27T03:13:44.174Z,174.80
2022-11-27T03:14:44.145Z,162.00
2022-11-27T03:15:44.189Z,140.20
2022-11-27T03:16:44.148Z,122.70
2022-11-27T03:17:44.164Z,115.20
2022-11-27T03:18:44.149Z,136.20
2022-11-27T03:19:44.110Z,99.30
2022-11-27T03:20:44.067Z,133.60
2022-11-27T03:21:44.113Z,128.40
2022-11-27T03:22:44.071Z,132.50
2022-11-27T03:23:44.084Z,120.90
2022-11-27T03:24:44.023Z,114.00
2022-11-27T03:25:44.012Z,117.40
2022-11-27T03:26:43.997Z,127.50
2022-11-27T03:27:43.995Z,145.30
2022-11-27T03:28:43.963Z,126.40
2022-11-27T03:29:43.996Z,158.90
2022-11-27T03:30:43.936Z,130.30
2022-11-27T03:31:44.006Z,101.30
2022-11-27T03:32:43.911Z,101.90
2022-11-27T03:33:43.921Z,103.90
2022-11-27T03:34:43.939Z,106.80
2022-11-27T03:35:43.895Z,101.00
2022-11-27T03:36:43.858Z,107.60
2022-11-27T03:37:43.871Z,86.20
2022-11-27T03:38:43.849Z,105.00
2022-11-27T03:39:43.844Z,93.30
2022-11-27T03:40:43.845Z,129.60
2022-11-27T03:41:43.839Z,163.00
2022-11-27T03:42:43.784Z,153.60
2022-11-27T03:43:43.840Z,119.70
2022-11-27T03:44:43.777Z,98.40
2022-11-27T03:45:43.807Z,110.20
2022-11-27T03:46:43.766Z,115.40
2022-11-27T03:47:43.775Z,121.70
2022-11-27T03:48:43.703Z,115.10
2022-11-27T03:49:43.714Z,100.70
2022-11-27T03:50:43.716Z,129.30
2022-11-27T03:51:43.746Z,117.70
2022-11-27T03:52:43.697Z,95.30
2022-11-27T03:53:43.666Z,73.00
2022-11-27T03:54:43.630Z,80.20
2022-11-27T03:55:43.647Z,100.50
2022-11-27T03:56:43.638Z,79.70
2022-11-27T03:57:43.626Z,73.40
2022-11-27T03:58:43.595Z,99.30
2022-11-27T03:59:43.593Z,99.70
2022-11-27T04:00:43.606Z,128.20
2022-11-27T04:01:43.660Z,158.30
2022-11-27T04:02:43.570Z,113.80
2022-11-27T04:03:43.655Z,89.90
2022-11-27T04:04:43.506Z,93.70
2022-11-27T04:05:43.513Z,99.70
2022-11-27T04:06:43.482Z,80.50
2022-11-27T04:07:43.602Z,67.60
2022-11-27T04:08:43.448Z,63.10
2022-11-27T04:09:43.458Z,101.60
2022-11-27T04:10:43.441Z,94.00
2022-11-27T04:11:43.437Z,87.10
2022-11-27T04:12:43.409Z,76.70
2022-11-27T04:13:43.440Z,80.00
2022-11-27T04:14:43.407Z,122.80
2022-11-27T04:15:43.461Z,107.20
2022-11-27T04:16:43.401Z,105.60
2022-11-27T04:17:43.364Z,94.40
2022-11-27T04:18:43.357Z,106.00
2022-11-27T04:19:43.337Z,117.50
2022-11-27T04:20:43.303Z,102.20
2022-11-27T04:21:43.350Z,111.00
2022-11-27T04:22:43.274Z,112.90
2022-11-27T04:23:43.306Z,136.10
2022-11-27T04:24:43.300Z,117.40
2022-11-27T04:25:43.273Z,116.80
2022-11-27T04:26:43.234Z,105.30
2022-11-27T04:27:43.237Z,102.30
2022-11-27T04:28:43.198Z,92.80
2022-11-27T04:29:43.257Z,115.30
2022-11-27T04:30:43.179Z,107.60
2022-11-27T04:31:43.229Z,132.00
2022-11-27T04:32:43.143Z,118.20
2022-11-27T04:33:43.153Z,101.20
2022-11-27T04:34:43.233Z,129.10
2022-11-27T04:35:43.170Z,82.70
2022-11-27T04:36:43.095Z,103.50
2022-11-27T04:37:43.126Z,104.00
2022-11-27T04:38:43.092Z,77.80
2022-11-27T04:39:43.081Z,81.90
2022-11-27T04:40:43.086Z,109.30
2022-11-27T04:41:43.088Z,153.90
2022-11-27T04:42:43.027Z,121.60
2022-11-27T04:43:43.030Z,108.10
2022-11-27T04:44:43.302Z,119.20
2022-11-27T04:45:43.069Z,126.50
2022-11-27T04:46:43.044Z,155.90
2022-11-27T04:47:43.008Z,74.70
2022-11-27T04:48:42.956Z,139.20
2022-11-27T04:49:42.955Z,168.40
2022-11-27T04:50:42.927Z,172.10
2022-11-27T04:51:42.998Z,131.50
2022-11-27T04:52:42.914Z,103.50
2022-11-27T04:53:42.887Z,118.70
2022-11-27T04:54:43.161Z,87.40
2022-11-27T04:55:42.850Z,76.80
2022-11-27T04:56:42.899Z,49.00
2022-11-27T04:57:42.881Z,57.20
2022-11-27T04:58:42.841Z,48.60
2022-11-27T04:59:42.854Z,56.50
2022-11-27T05:00:42.884Z,54.70
2022-11-27T05:01:42.777Z,60.10
2022-11-27T05:02:42.971Z,53.70
2022-11-27T05:03:42.759Z,48.90
2022-11-27T05:04:42.982Z,52.10
2022-11-27T05:05:42.727Z,65.10
2022-11-27T05:06:42.740Z,72.60
2022-11-27T05:07:42.771Z,56.30
2022-11-27T05:08:42.739Z,62.90
2022-11-27T05:09:42.675Z,46.40
2022-11-27T05:10:42.733Z,46.50
2022-11-27T05:11:42.676Z,50.50
2022-11-27T05:12:42.663Z,43.40
2022-11-27T05:13:42.680Z,50.20
2022-11-27T05:14:42.913Z,49.40
2022-11-27T05:15:42.622Z,48.90
2022-11-27T05:16:42.634Z,63.10
2022-11-27T05:17:42.575Z,59.10
2022-11-27T05:18:42.581Z,63.60
2022-11-27T05:19:42.597Z,58.40
2022-11-27T05:20:42.557Z,77.30
2022-11-27T05:21:42.520Z,54.50
2022-11-27T05:22:42.530Z,53.90
2022-11-27T05:23:42.512Z,50.10
2022-11-27T05:24:42.738Z,57.20
2022-11-27T05:25:42.475Z,47.90
2022-11-27T05:26:42.489Z,48.00
2022-11-27T05:27:42.462Z,40.80
2022-11-27T05:28:42.476Z,45.00
2022-11-27T05:29:42.436Z,42.50
2022-11-27T05:30:42.472Z,36.30
2022-11-27T05:31:42.456Z,33.80
2022-11-27T05:32:42.430Z,39.70
2022-11-27T05:33:42.391Z,36.00
2022-11-27T05:34:42.672Z,36.20
2022-11-27T05:35:42.408Z,37.80
2022-11-27T05:36:42.356Z,33.70
2022-11-27T05:37:42.319Z,39.60
2022-11-27T05:38:42.333Z,43.60
2022-11-27T05:39:42.326Z,44.80
2022-11-27T05:40:42.303Z,43.00
2022-11-27T05:41:42.295Z,42.80
2022-11-27T05:42:42.303Z,43.90
2022-11-27T05:43:42.243Z,43.50
2022-11-27T05:44:42.634Z,43.30
2022-11-27T05:45:42.238Z,41.90
2022-11-27T05:46:42.337Z,40.70
2022-11-27T05:47:42.212Z,39.20
2022-11-27T05:48:42.211Z,39.80
2022-11-27T05:49:42.191Z,35.10
2022-11-27T05:50:42.199Z,37.90
2022-11-27T05:51:46.372Z,35.00
2022-11-27T05:52:42.193Z,43.10
2022-11-27T05:53:42.190Z,44.50
2022-11-27T05:54:42.483Z,44.80
2022-11-27T05:55:42.109Z,37.00
2022-11-27T05:56:42.108Z,40.20
2022-11-27T05:57:42.122Z,39.60
2022-11-27T05:58:42.128Z,39.40
2022-11-27T05:59:42.056Z,42.20
2022-11-27T06:00:42.077Z,34.60
2022-11-27T06:01:42.079Z,40.80
2022-11-27T06:02:42.219Z,32.70
2022-11-27T06:03:42.106Z,38.30
2022-11-27T06:04:42.212Z,38.50
2022-11-27T06:05:41.967Z,41.70
2022-11-27T06:06:41.996Z,41.40
2022-11-27T06:07:42.029Z,35.40
2022-11-27T06:08:42.028Z,44.00
2022-11-27T06:09:41.926Z,44.90
2022-11-27T06:10:41.938Z,45.70
2022-11-27T06:11:41.895Z,38.40
2022-11-27T06:12:42.032Z,44.80
2022-11-27T06:13:41.889Z,37.60
2022-11-27T06:14:42.268Z,35.70
2022-11-27T06:15:41.852Z,40.90
2022-11-27T06:16:41.989Z,47.20
2022-11-27T06:17:41.819Z,40.80
2022-11-27T06:18:41.826Z,45.20
2022-11-27T06:19:41.843Z,41.40
2022-11-27T06:20:44.673Z,43.60
2022-11-27T06:21:41.758Z,50.50
2022-11-27T06:22:41.779Z,43.10
2022-11-27T06:23:41.703Z,47.80
2022-11-27T06:24:42.060Z,46.10
2022-11-27T06:25:41.706Z,53.90
2022-11-27T06:26:41.667Z,82.10
2022-11-27T06:27:41.629Z,49.70
2022-11-27T06:28:41.707Z,92.80
2022-11-27T06:29:41.667Z,53.50
2022-11-27T06:30:41.713Z,56.50
2022-11-27T06:31:41.661Z,65.90
2022-11-27T06:32:41.594Z,52.00
2022-11-27T06:33:41.551Z,86.50
2022-11-27T06:34:41.847Z,56.10
2022-11-27T06:35:41.588Z,87.40
2022-11-27T06:36:41.585Z,72.20
2022-11-27T06:37:41.507Z,71.90
2022-11-27T06:38:41.526Z,55.10
2022-11-27T06:39:41.482Z,93.50
2022-11-27T06:40:41.504Z,80.20
2022-11-27T06:41:41.489Z,42.80
2022-11-27T06:42:41.486Z,45.80
2022-11-27T06:43:41.426Z,43.80
2022-11-27T06:44:41.638Z,41.70
2022-11-27T06:45:41.438Z,56.30
2022-11-27T06:46:41.416Z,43.60
2022-11-27T06:47:41.411Z,51.10
2022-11-27T06:48:41.390Z,48.50
2022-11-27T06:49:41.353Z,56.00
2022-11-27T06:50:41.375Z,54.70
2022-11-27T06:51:41.339Z,52.70
2022-11-27T06:52:41.368Z,46.60
2022-11-27T06:53:41.309Z,47.00
2022-11-27T06:54:41.586Z,52.20
2022-11-27T06:55:41.279Z,45.20
2022-11-27T06:56:41.327Z,49.60
2022-11-27T06:57:41.256Z,52.60
2022-11-27T06:58:41.288Z,46.80
2022-11-27T06:59:41.225Z,49.60
2022-11-27T07:00:41.330Z,57.50
2022-11-27T07:01:41.310Z,53.70
2022-11-27T07:02:41.209Z,46.20
2022-11-27T07:03:41.219Z,46.60
2022-11-27T07:04:41.338Z,60.80
2022-11-27T07:05:41.159Z,56.10
2022-11-27T07:06:41.196Z,49.50
2022-11-27T07:07:43.939Z,60.20
2022-11-27T07:08:41.178Z,45.90
2022-11-27T07:09:41.157Z,50.10
2022-11-27T07:10:41.112Z,72.90
2022-11-27T07:11:41.098Z,98.60
2022-11-27T07:12:41.088Z,96.70
2022-11-27T07:13:41.048Z,81.20
2022-11-27T07:14:41.305Z,135.30
2022-11-27T07:15:41.023Z,80.40
2022-11-27T07:16:41.071Z,86.80
2022-11-27T07:17:41.002Z,86.70
2022-11-27T07:18:41.019Z,81.50
2022-11-27T07:19:40.997Z,85.50
2022-11-27T07:20:41.044Z,96.40
2022-11-27T07:21:40.966Z,78.70
2022-11-27T07:22:40.967Z,58.20
2022-11-27T07:23:40.948Z,87.30
2022-11-27T07:24:41.146Z,72.30
2022-11-27T07:25:40.946Z,94.30
2022-11-27T07:26:40.907Z,88.80
2022-11-27T07:27:40.869Z,90.50
2022-11-27T07:28:40.883Z,115.30
2022-11-27T07:29:40.871Z,79.40
2022-11-27T07:30:40.853Z,91.10
2022-11-27T07:31:40.872Z,127.20
2022-11-27T07:32:40.831Z,121.40
2022-11-27T07:33:40.792Z,124.00
2022-11-27T07:34:40.958Z,104.70
2022-11-27T07:35:40.768Z,128.70
2022-11-27T07:36:40.916Z,157.40
2022-11-27T07:37:40.743Z,101.40
2022-11-27T07:38:40.762Z,102.00
2022-11-27T07:40:01.372Z,119.30
2022-11-27T07:40:40.734Z,144.10
2022-11-27T07:41:40.699Z,85.90
2022-11-27T07:42:40.724Z,147.90
2022-11-27T07:43:40.662Z,114.00
2022-11-27T07:44:41.003Z,107.30
2022-11-27T07:45:40.710Z,111.40
2022-11-27T07:46:40.668Z,63.80
2022-11-27T07:47:40.660Z,78.70
2022-11-27T07:48:40.655Z,111.40
2022-11-27T07:49:40.590Z,94.40
2022-11-27T07:50:40.604Z,82.60
2022-11-27T07:51:40.597Z,171.40
2022-11-27T07:52:42.191Z,87.60
2022-11-27T07:53:40.604Z,132.60
2022-11-27T07:54:40.816Z,105.30
2022-11-27T07:55:40.537Z,141.00
2022-11-27T07:56:40.592Z,105.00
2022-11-27T07:57:40.499Z,110.80
2022-11-27T07:58:40.586Z,87.40
2022-11-27T07:59:45.737Z,73.10
2022-11-27T08:00:40.535Z,77.10
2022-11-27T08:01:40.473Z,94.40
2022-11-27T08:02:40.451Z,93.20
2022-11-27T08:03:40.411Z,75.80
2022-11-27T08:04:40.815Z,82.90
2022-11-27T08:05:40.398Z,100.90
2022-11-27T08:06:40.396Z,62.60
2022-11-27T08:07:40.472Z,74.10
2022-11-27T08:08:40.390Z,84.00
2022-11-27T08:09:40.381Z,106.60
2022-11-27T08:10:40.404Z,89.10
2022-11-27T08:11:40.351Z,117.50
2022-11-27T08:12:40.327Z,129.40
2022-11-27T08:13:40.292Z,80.20
2022-11-27T08:14:40.537Z,90.90
2022-11-27T08:15:40.284Z,77.30
2022-11-27T08:16:40.388Z,90.50
2022-11-27T08:17:40.242Z,92.10
2022-11-27T08:18:40.255Z,83.40
2022-11-27T08:19:40.281Z,76.60
2022-11-27T08:20:40.308Z,91.90
2022-11-27T08:21:40.262Z,74.10
2022-11-27T08:22:40.193Z,89.70
2022-11-27T08:23:40.176Z,110.40
2022-11-27T08:24:40.479Z,88.50
2022-11-27T08:25:40.143Z,106.80
2022-11-27T08:26:40.248Z,139.40
2022-11-27T08:27:40.115Z,101.50
2022-11-27T08:28:40.137Z,128.40
2022-11-27T08:29:40.096Z,100.40
2022-11-27T08:30:40.108Z,117.40
2022-11-27T08:31:40.224Z,99.70
2022-11-27T08:32:40.074Z,79.30
2022-11-27T08:33:40.033Z,88.60
2022-11-27T08:34:40.356Z,107.20
2022-11-27T08:35:40.008Z,95.10
2022-11-27T08:36:40.020Z,76.60
2022-11-27T08:37:40.007Z,76.70
2022-11-27T08:38:40.068Z,75.30
2022-11-27T08:39:39.980Z,83.20
2022-11-27T08:40:40.029Z,76.30
2022-11-27T08:41:39.954Z,97.10
2022-11-27T08:42:39.977Z,75.00
2022-11-27T08:43:39.922Z,76.10
2022-11-27T08:44:40.154Z,66.20
2022-11-27T08:45:39.937Z,66.60
2022-11-27T08:46:39.884Z,90.90
2022-11-27T08:47:39.861Z,86.50
2022-11-27T08:48:39.906Z,73.90
2022-11-27T08:49:44.899Z,70.90
2022-11-27T08:50:39.841Z,92.40
2022-11-27T08:51:39.811Z,97.60
2022-11-27T08:52:39.816Z,85.60
2022-11-27T08:53:39.824Z,80.60
2022-11-27T08:54:40.182Z,110.30
2022-11-27T08:55:39.749Z,68.40
2022-11-27T08:56:39.765Z,72.70
2022-11-27T08:57:39.721Z,69.30
2022-11-27T08:58:39.760Z,75.90
2022-11-27T08:59:39.744Z,75.40
2022-11-27T09:00:39.748Z,75.20
2022-11-27T09:01:39.731Z,77.70
2022-11-27T09:02:39.678Z,97.50
2022-11-27T09:03:39.769Z,71.30
2022-11-27T09:04:40.114Z,85.60
2022-11-27T09:05:39.643Z,75.50
2022-11-27T09:06:39.642Z,72.20
2022-11-27T09:07:39.700Z,81.90
2022-11-27T09:08:39.608Z,76.90
2022-11-27T09:09:39.588Z,82.70
2022-11-27T09:10:39.594Z,64.80
2022-11-27T09:11:39.583Z,64.00
2022-11-27T09:12:43.371Z,62.90
2022-11-27T09:13:39.551Z,60.80
2022-11-27T09:14:39.999Z,67.50
2022-11-27T09:15:39.577Z,68.30
2022-11-27T09:16:39.521Z,68.80
2022-11-27T09:17:39.490Z,62.80
2022-11-27T09:18:39.465Z,83.70
2022-11-27T09:19:39.489Z,60.50
2022-11-27T09:20:39.445Z,60.80
2022-11-27T09:21:39.482Z,53.50
2022-11-27T09:22:39.416Z,65.80
2022-11-27T09:23:39.414Z,58.80
2022-11-27T09:24:39.726Z,55.40
2022-11-27T09:25:39.412Z,64.30
2022-11-27T09:26:39.409Z,63.90
2022-11-27T09:27:39.369Z,56.60
2022-11-27T09:28:39.368Z,54.80
2022-11-27T09:29:39.340Z,58.70
2022-11-27T09:30:39.305Z,60.90
2022-11-27T09:31:39.372Z,52.90
2022-11-27T09:32:39.314Z,53.70
2022-11-27T09:33:39.285Z,49.20
2022-11-27T09:34:39.636Z,61.80
2022-11-27T09:35:39.344Z,58.40
2022-11-27T09:36:39.231Z,53.00
2022-11-27T09:37:39.278Z,50.80
2022-11-27T09:38:39.208Z,54.60
2022-11-27T09:39:39.284Z,49.70
2022-11-27T09:40:39.180Z,48.10
2022-11-27T09:41:39.285Z,44.70
2022-11-27T09:42:39.147Z,53.30
2022-11-27T09:43:39.224Z,49.60
2022-11-27T09:44:39.644Z,48.80
2022-11-27T09:45:39.218Z,53.10
2022-11-27T09:46:39.117Z,50.10
2022-11-27T09:47:41.626Z,52.00
2022-11-27T09:48:39.075Z,43.60
2022-11-27T09:49:39.123Z,47.00
2022-11-27T09:50:39.094Z,42.20
2022-11-27T09:51:39.072Z,53.30
2022-11-27T09:52:39.031Z,46.10
2022-11-27T09:53:39.032Z,46.80
2022-11-27T09:54:39.210Z,41.10
2022-11-27T09:55:39.060Z,47.00
2022-11-27T09:56:38.979Z,45.80
2022-11-27T09:57:38.990Z,45.30
2022-11-27T09:58:38.967Z,43.50
2022-11-27T09:59:38.959Z,43.10
2022-11-27T10:00:38.921Z,39.50
2022-11-27T10:01:46.345Z,49.30
2022-11-27T10:02:39.043Z,51.40
2022-11-27T10:03:38.907Z,42.50
2022-11-27T10:05:05.965Z,42.50
2022-11-27T10:05:38.899Z,49.20
2022-11-27T10:06:38.882Z,40.10
2022-11-27T10:07:38.964Z,42.70
2022-11-27T10:08:38.851Z,39.50
2022-11-27T10:09:38.842Z,39.00
2022-11-27T10:10:38.847Z,37.40
2022-11-27T10:11:38.805Z,38.70
2022-11-27T10:12:38.808Z,36.50
2022-11-27T10:13:38.833Z,38.90
2022-11-27T10:14:39.168Z,37.30
2022-11-27T10:15:38.754Z,35.50
2022-11-27T10:16:44.134Z,35.60
2022-11-27T10:17:38.786Z,32.20
2022-11-27T10:18:38.693Z,33.90
2022-11-27T10:19:38.720Z,32.20
2022-11-27T10:20:38.679Z,35.50
2022-11-27T10:21:38.701Z,33.90
2022-11-27T10:22:38.667Z,37.60
2022-11-27T10:23:38.708Z,35.30
2022-11-27T10:24:38.834Z,32.90
2022-11-27T10:25:38.655Z,30.60
2022-11-27T10:26:38.593Z,29.70
2022-11-27T10:27:38.606Z,30.80
2022-11-27T10:28:38.689Z,28.80
2022-11-27T10:29:38.618Z,31.10
2022-11-27T10:30:38.536Z,31.10
2022-11-27T10:31:38.646Z,35.00
2022-11-27T10:32:55.428Z,34.30
2022-11-27T10:33:38.536Z,31.00
2022-11-27T10:34:38.818Z,32.80
2022-11-27T10:35:38.499Z,32.30
2022-11-27T10:36:38.522Z,29.50
2022-11-27T10:37:38.470Z,28.70
2022-11-27T10:38:38.436Z,28.90
2022-11-27T10:39:38.442Z,31.10
2022-11-27T10:40:38.457Z,32.20
2022-11-27T10:41:53.660Z,33.90
2022-11-27T10:42:38.406Z,30.00
2022-11-27T10:43:38.477Z,31.60
2022-11-27T10:44:38.763Z,27.90
2022-11-27T10:45:38.432Z,31.30
2022-11-27T10:46:38.432Z,30.60
2022-11-27T10:47:38.344Z,27.00
2022-11-27T10:48:38.318Z,30.10
2022-11-27T10:49:38.436Z,30.20
2022-11-27T10:50:38.296Z,30.70
2022-11-27T10:51:38.338Z,28.40
2022-11-27T10:52:38.275Z,27.40
2022-11-27T10:53:38.268Z,26.60
2022-11-27T10:54:38.629Z,25.70
2022-11-27T10:55:38.242Z,28.60
2022-11-27T10:56:38.269Z,27.60
2022-11-27T10:57:38.211Z,29.10
2022-11-27T10:58:38.190Z,27.60
2022-11-27T10:59:38.194Z,27.40
2022-11-27T11:00:38.236Z,29.30
2022-11-27T11:01:38.202Z,28.20
2022-11-27T11:02:38.229Z,27.30
2022-11-27T11:03:38.161Z,29.40
2022-11-27T11:04:39.012Z,30.30
2022-11-27T11:06:04.226Z,28.60
2022-11-27T11:06:38.142Z,28.40
2022-11-27T11:07:38.169Z,25.90
2022-11-27T11:08:38.063Z,27.10
2022-11-27T11:09:38.077Z,27.20
2022-11-27T11:10:38.057Z,28.50
2022-11-27T11:11:38.035Z,26.50
2022-11-27T11:12:38.023Z,28.40
2022-11-27T11:13:38.063Z,26.40
2022-11-27T11:14:38.348Z,25.60
2022-11-27T11:15:37.993Z,26.70
2022-11-27T11:16:37.982Z,28.40
2022-11-27T11:17:37.962Z,24.10
2022-11-27T11:18:37.947Z,27.60
2022-11-27T11:19:37.975Z,27.60
2022-11-27T11:20:37.896Z,27.00
2022-11-27T11:21:37.918Z,27.40
2022-11-27T11:22:37.925Z,29.20
2022-11-27T11:23:37.907Z,27.60
2022-11-27T11:24:37.956Z,26.20
2022-11-27T11:25:37.968Z,26.70
2022-11-27T11:26:37.816Z,29.60
2022-11-27T11:27:37.835Z,26.70
2022-11-27T11:28:39.682Z,25.90
2022-11-27T11:29:37.935Z,26.10
2022-11-27T11:30:37.791Z,27.40
2022-11-27T11:31:37.829Z,25.50
2022-11-27T11:32:37.735Z,26.00
2022-11-27T11:33:37.816Z,26.40
2022-11-27T11:34:37.785Z,29.70
2022-11-27T11:35:37.727Z,28.60
2022-11-27T11:36:37.690Z,24.80
2022-11-27T11:37:37.701Z,27.60
2022-11-27T11:38:37.665Z,26.60
2022-11-27T11:39:37.697Z,29.20
2022-11-27T11:40:37.668Z,28.20
2022-11-27T11:41:37.657Z,24.60
2022-11-27T11:42:37.611Z,26.10
2022-11-27T11:43:37.642Z,25.00
2022-11-27T11:44:37.638Z,25.00
2022-11-27T11:45:37.680Z,26.80
2022-11-27T11:46:37.577Z,26.60
2022-11-27T11:47:37.579Z,27.40
2022-11-27T11:48:37.535Z,29.10
2022-11-27T11:49:37.597Z,25.20
2022-11-27T11:50:37.533Z,23.10
2022-11-27T11:51:37.534Z,25.70
2022-11-27T11:52:37.475Z,22.40
2022-11-27T11:53:37.500Z,27.60
2022-11-27T11:54:37.449Z,25.10
2022-11-27T11:55:37.521Z,24.00
2022-11-27T11:56:37.474Z,26.20
2022-11-27T11:57:37.464Z,25.80
2022-11-27T11:58:37.425Z,25.10
2022-11-27T11:59:39.578Z,25.70
2022-11-27T12:00:53.154Z,24.90
2022-11-27T12:01:37.419Z,25.30
2022-11-27T12:02:37.446Z,21.70
2022-11-27T12:03:37.363Z,27.40
2022-11-27T12:04:37.481Z,24.70
2022-11-27T12:05:37.370Z,24.20
2022-11-27T12:06:37.345Z,25.10
2022-11-27T12:07:37.361Z,25.60
2022-11-27T12:08:37.301Z,25.90
2022-11-27T12:09:37.295Z,21.40
2022-11-27T12:10:37.246Z,24.20
2022-11-27T12:11:37.319Z,24.70
2022-11-27T12:12:37.234Z,23.30
2022-11-27T12:13:37.265Z,21.50
2022-11-27T12:14:37.270Z,22.40
2022-11-27T12:15:37.210Z,21.10
2022-11-27T12:16:37.213Z,24.10
2022-11-27T12:17:37.236Z,24.60
2022-11-27T12:18:37.153Z,21.60
2022-11-27T12:19:37.155Z,21.80
2022-11-27T12:20:37.141Z,22.10
2022-11-27T12:21:37.133Z,19.30
2022-11-27T12:22:37.118Z,23.90
2022-11-27T12:23:37.142Z,21.60
2022-11-27T12:24:37.059Z,21.90
2022-11-27T12:25:37.076Z,21.90
2022-11-27T12:26:37.104Z,19.50
2022-11-27T12:27:37.085Z,18.90
2022-11-27T12:28:37.018Z,20.40
2022-11-27T12:29:37.041Z,20.10
2022-11-27T12:30:36.986Z,17.80
2022-11-27T12:31:37.082Z,21.80
2022-11-27T12:32:36.986Z,23.20
2022-11-27T12:33:37.017Z,26.40
2022-11-27T12:34:36.939Z,25.20
2022-11-27T12:35:36.946Z,24.50
2022-11-27T12:36:36.915Z,32.10
2022-11-27T12:37:36.932Z,22.10
2022-11-27T12:38:36.907Z,22.50
2022-11-27T12:39:36.925Z,22.20
2022-11-27T12:40:36.892Z,20.90
2022-11-27T12:41:36.874Z,19.40
2022-11-27T12:42:36.851Z,20.60
2022-11-27T12:43:36.928Z,18.10
2022-11-27T12:44:36.806Z,18.50